createdAt,value
2018-03-17T00:00:35.234Z,-2.20
2018-03-17T00:03:38.535Z,-2.32
2018-03-17T00:06:42.642Z,-2.31
2018-03-17T00:09:45.952Z,-2.22
2018-03-17T00:12:50.030Z,-2.23
2018-03-17T00:15:53.354Z,-2.22
2018-03-17T00:18:56.655Z,-2.22
2018-03-17T00:21:59.975Z,-2.21
2018-03-17T00:25:03.285Z,-2.14
2018-03-17T00:28:06.603Z,-2.13
2018-03-17T00:31:09.903Z,-2.10
2018-03-17T00:34:13.226Z,-2.04
2018-03-17T00:37:16.541Z,-2.13
2018-03-17T00:40:20.624Z,-2.08
2018-03-17T00:43:23.936Z,-2.17
2018-03-17T00:46:27.260Z,-2.27
2018-03-17T00:49:30.563Z,-2.27
2018-03-17T00:52:33.895Z,-2.33
2018-03-17T00:55:37.190Z,-2.29
2018-03-17T00:58:40.507Z,-2.29
2018-03-17T01:01:43.851Z,-2.36
2018-03-17T01:04:47.154Z,-2.28
2018-03-17T01:07:50.476Z,-2.33
2018-03-17T01:10:53.783Z,-2.26
2018-03-17T01:13:57.104Z,-2.24
2018-03-17T01:17:00.417Z,-2.20
2018-03-17T01:20:04.478Z,-2.12
2018-03-17T01:23:07.790Z,-2.18
2018-03-17T01:26:11.086Z,-2.21
2018-03-17T01:29:14.401Z,-2.19
2018-03-17T01:32:17.702Z,-2.13
2018-03-17T01:35:21.798Z,-2.16
2018-03-17T01:38:25.098Z,-2.27
2018-03-17T01:41:28.415Z,-2.37
2018-03-17T01:44:32.495Z,-2.38
2018-03-17T01:47:35.806Z,-2.41
2018-03-17T01:50:39.110Z,-2.37
2018-03-17T01:53:42.430Z,-2.32
2018-03-17T01:56:46.490Z,-2.29
2018-03-17T01:59:49.823Z,-2.37
2018-03-17T02:02:53.120Z,-2.37
2018-03-17T02:05:56.439Z,-2.25
2018-03-17T02:08:59.756Z,-2.22
2018-03-17T02:12:03.060Z,-2.29
2018-03-17T02:15:06.376Z,-2.20
2018-03-17T02:18:09.678Z,-2.24
2018-03-17T02:21:12.998Z,-2.26
2018-03-17T02:24:16.303Z,-2.28
2018-03-17T02:27:19.639Z,-2.31
2018-03-17T02:30:22.944Z,-2.39
2018-03-17T02:33:26.263Z,-2.45
2018-03-17T02:36:29.605Z,-2.49
2018-03-17T02:39:32.913Z,-2.48
2018-03-17T02:42:36.236Z,-2.54
2018-03-17T02:45:39.547Z,-2.52
2018-03-17T02:48:42.869Z,-2.49
2018-03-17T02:51:46.166Z,-2.43
2018-03-17T02:54:50.246Z,-2.40
2018-03-17T02:57:53.546Z,-2.36
2018-03-17T03:00:56.866Z,-2.28
2018-03-17T03:04:00.186Z,-2.26
2018-03-17T03:07:04.271Z,-2.33
2018-03-17T03:10:07.596Z,-2.34
2018-03-17T03:13:11.695Z,-2.33
2018-03-17T03:16:14.994Z,-2.33
2018-03-17T03:19:19.074Z,-2.34
2018-03-17T03:22:22.391Z,-2.38
2018-03-17T03:25:25.722Z,-2.38
2018-03-17T03:28:29.023Z,-2.44
2018-03-17T03:31:32.363Z,-2.40
2018-03-17T03:34:35.658Z,-2.43
2018-03-17T03:37:38.986Z,-2.40
2018-03-17T03:40:43.055Z,-2.32
2018-03-17T03:43:46.386Z,-2.31
2018-03-17T03:46:49.683Z,-2.32
2018-03-17T03:49:52.998Z,-2.38
2018-03-17T03:52:57.116Z,-2.39
2018-03-17T03:56:00.399Z,-2.39
2018-03-17T03:59:04.486Z,-2.35
2018-03-17T04:02:07.807Z,-2.40
2018-03-17T04:05:11.128Z,-2.41
2018-03-17T04:08:14.455Z,-2.46
2018-03-17T04:11:19.421Z,-2.50
2018-03-17T04:14:22.746Z,-2.54
2018-03-17T04:17:26.830Z,-2.60
2018-03-17T04:20:30.177Z,-2.62
2018-03-17T04:23:33.486Z,-2.55
2018-03-17T04:26:36.819Z,-2.57
2018-03-17T04:29:40.130Z,-2.53
2018-03-17T04:32:43.451Z,-2.60
2018-03-17T04:35:47.535Z,-2.61
2018-03-17T04:38:50.851Z,-2.62
2018-03-17T04:41:59.358Z,-2.59
2018-03-17T04:45:10.496Z,-2.63
2018-03-17T04:48:14.671Z,-2.59
2018-03-17T04:51:18.099Z,-2.50
2018-03-17T04:54:21.932Z,-2.50
2018-03-17T05:00:34.883Z,-2.51
2018-03-17T05:03:38.218Z,-2.43
2018-03-17T05:06:41.532Z,-2.49
2018-03-17T05:09:44.872Z,-2.53
2018-03-17T05:12:48.220Z,-2.62
2018-03-17T05:15:51.549Z,-2.65
2018-03-17T05:18:54.927Z,-2.63
2018-03-17T05:21:58.282Z,-2.59
2018-03-17T05:25:02.412Z,-2.51
2018-03-17T05:28:06.516Z,-2.45
2018-03-17T05:31:10.637Z,-2.52
2018-03-17T05:34:15.198Z,-2.63
2018-03-17T05:37:18.548Z,-2.64
2018-03-17T05:40:21.874Z,-2.72
2018-03-17T05:43:37.948Z,-2.73
2018-03-17T05:46:56.186Z,-2.74
2018-03-17T05:50:03.574Z,-2.60
2018-03-17T05:53:10.700Z,-2.58
2018-03-17T05:56:14.504Z,-2.50
2018-03-17T05:59:21.448Z,-2.41
2018-03-17T06:02:26.548Z,-2.49
2018-03-17T06:05:32.788Z,-2.46
2018-03-17T06:08:36.316Z,-2.44
2018-03-17T06:11:41.352Z,-2.39
2018-03-17T06:14:48.023Z,-2.28
2018-03-17T06:17:58.966Z,-2.27
2018-03-17T06:21:05.283Z,-2.28
2018-03-17T06:24:13.711Z,-2.22
2018-03-17T06:27:21.283Z,-2.22
2018-03-17T06:30:26.395Z,-2.26
2018-03-17T06:33:30.825Z,-2.29
2018-03-17T06:36:38.206Z,-2.28
2018-03-17T06:39:44.095Z,-2.23
2018-03-17T06:42:49.287Z,-2.21
2018-03-17T06:45:55.249Z,-2.15
2018-03-17T06:49:00.203Z,-2.11
2018-03-17T06:52:17.509Z,-2.07
2018-03-17T06:55:21.901Z,-2.01
2018-03-17T06:58:25.234Z,-2.04
2018-03-17T07:01:29.303Z,-2.00
2018-03-17T07:04:32.618Z,-1.90
2018-03-17T07:07:35.910Z,-1.79
2018-03-17T07:10:39.235Z,-1.77
2018-03-17T07:13:43.335Z,-1.75
2018-03-17T07:16:47.407Z,-1.72
2018-03-17T07:19:50.759Z,-1.73
2018-03-17T07:22:54.039Z,-1.75
2018-03-17T07:25:57.358Z,-1.72
2018-03-17T07:29:00.662Z,-1.69
2018-03-17T07:32:04.022Z,-1.66
2018-03-17T07:35:07.302Z,-1.55
2018-03-17T07:38:10.627Z,-1.50
2018-03-17T07:41:14.722Z,-1.49
2018-03-17T07:44:18.042Z,-1.43
2018-03-17T07:47:22.135Z,-1.34
2018-03-17T07:50:25.435Z,-1.24
2018-03-17T07:53:28.759Z,-1.27
2018-03-17T07:56:32.828Z,-1.35
2018-03-17T07:59:36.163Z,-1.40
2018-03-17T08:02:40.235Z,-1.37
2018-03-17T08:05:43.558Z,-1.35
2018-03-17T08:08:46.859Z,-1.33
2018-03-17T08:11:50.178Z,-1.34
2018-03-17T08:14:53.510Z,-1.38
2018-03-17T08:17:56.811Z,-1.38
2018-03-17T08:21:00.138Z,-1.36
2018-03-17T08:24:03.447Z,-1.40
2018-03-17T08:27:07.539Z,-1.41
2018-03-17T08:30:10.847Z,-1.60
2018-03-17T08:33:14.174Z,-1.77
2018-03-17T08:36:17.480Z,-1.84
2018-03-17T08:39:20.798Z,-1.79
2018-03-17T08:42:24.111Z,-1.66
2018-03-17T08:45:27.446Z,-1.54
2018-03-17T08:48:31.514Z,-1.47
2018-03-17T08:51:34.830Z,-1.44
2018-03-17T08:54:38.135Z,-1.38
2018-03-17T08:57:42.260Z,-1.27
2018-03-17T09:00:46.336Z,-1.18
2018-03-17T09:03:49.664Z,-1.11
2018-03-17T09:06:53.011Z,-1.10
2018-03-17T09:09:56.315Z,-1.01
2018-03-17T09:12:59.634Z,-1.04
2018-03-17T09:16:02.946Z,-1.02
2018-03-17T09:19:06.278Z,-0.82
2018-03-17T09:22:09.583Z,-0.83
2018-03-17T09:25:12.918Z,-0.68
2018-03-17T09:28:16.235Z,-0.59
2018-03-17T09:31:19.564Z,-0.67
2018-03-17T09:34:22.894Z,-0.81
2018-03-17T09:37:26.202Z,-0.92
2018-03-17T09:40:29.538Z,-0.99
2018-03-17T09:43:33.607Z,-1.07
2018-03-17T09:46:36.930Z,-1.08
2018-03-17T09:49:40.257Z,-1.02
2018-03-17T09:52:43.570Z,-1.03
2018-03-17T09:55:46.882Z,-0.98
2018-03-17T09:58:50.206Z,-0.92
2018-03-17T10:01:53.502Z,-0.80
2018-03-17T10:04:56.830Z,-0.76
2018-03-17T10:08:00.895Z,-0.82
2018-03-17T10:11:04.230Z,-0.80
2018-03-17T10:14:08.298Z,-0.77
2018-03-17T10:17:11.647Z,-0.69
2018-03-17T10:20:15.719Z,-0.39
2018-03-17T10:23:19.038Z,-0.21
2018-03-17T10:26:22.347Z,-0.25
2018-03-17T10:29:26.474Z,-0.31
2018-03-17T10:32:29.746Z,-0.15
2018-03-17T10:35:33.076Z,-0.03
2018-03-17T10:38:36.379Z,0.17
2018-03-17T10:41:39.697Z,0.26
2018-03-17T10:44:43.018Z,0.01
2018-03-17T10:47:46.363Z,-0.13
2018-03-17T10:50:49.655Z,-0.13
2018-03-17T10:53:53.727Z,-0.21
2018-03-17T10:56:57.068Z,-0.20
2018-03-17T11:00:00.374Z,-0.26
2018-03-17T11:03:03.695Z,0.00
2018-03-17T11:06:07.068Z,0.25
2018-03-17T11:09:11.102Z,0.58
2018-03-17T11:12:14.419Z,0.53
2018-03-17T11:15:17.718Z,0.25
2018-03-17T11:18:21.050Z,-0.06
2018-03-17T11:21:25.139Z,-0.10
2018-03-17T11:24:28.454Z,-0.11
2018-03-17T11:27:32.527Z,-0.20
2018-03-17T11:30:35.850Z,-0.24
2018-03-17T11:33:39.159Z,-0.18
2018-03-17T11:36:44.078Z,-0.23
2018-03-17T11:39:47.379Z,-0.16
2018-03-17T11:42:50.703Z,-0.01
2018-03-17T11:45:54.011Z,-0.07
2018-03-17T11:48:57.331Z,-0.29
2018-03-17T11:52:00.645Z,-0.39
2018-03-17T11:55:03.976Z,-0.38
2018-03-17T11:58:07.286Z,-0.39
2018-03-17T12:01:11.636Z,-0.38
2018-03-17T12:18:30.591Z,-0.13
2018-03-17T12:21:33.918Z,-0.05
2018-03-17T12:28:17.749Z,-0.02
2018-03-17T13:01:11.512Z,-0.18
2018-03-17T13:04:34.267Z,-0.02
2018-03-17T13:15:13.628Z,-0.14
2018-03-17T13:22:04.053Z,0.03
2018-03-17T13:25:07.432Z,-0.01
2018-03-17T13:28:26.556Z,-0.08
2018-03-17T13:31:30.193Z,-0.29
2018-03-17T13:34:34.865Z,-0.35
2018-03-17T13:41:28.169Z,-0.16
2018-03-17T13:48:18.046Z,-0.19
2018-03-17T14:43:32.206Z,-0.31
2018-03-17T14:46:37.552Z,-0.33
2018-03-17T14:50:22.658Z,-0.39
2018-03-17T14:56:42.036Z,-0.39
2018-03-17T14:59:52.701Z,-0.28
2018-03-17T15:02:58.363Z,-0.31
2018-03-17T15:09:37.274Z,-0.71
2018-03-17T15:15:59.859Z,-0.84
2018-03-17T15:19:09.890Z,-0.87
2018-03-17T15:22:19.649Z,-0.86
2018-03-17T15:25:27.001Z,-0.81
2018-03-17T15:28:35.493Z,-0.71
2018-03-17T15:31:59.313Z,-0.70
2018-03-17T15:35:09.606Z,-0.63
2018-03-17T15:38:14.643Z,-0.45
2018-03-17T15:41:33.933Z,-0.31
2018-03-17T15:44:58.108Z,-0.50
2018-03-17T15:48:12.672Z,-0.64
2018-03-17T15:51:28.285Z,-0.56
2018-03-17T15:54:40.400Z,-0.70
2018-03-17T15:57:47.590Z,-0.68
2018-03-17T16:01:00.614Z,-0.82
2018-03-17T16:04:11.117Z,-0.93
2018-03-17T16:07:18.197Z,-0.97
2018-03-17T16:10:31.017Z,-0.80
2018-03-17T16:13:39.089Z,-0.73
2018-03-17T16:19:59.898Z,-0.76
2018-03-17T16:23:13.488Z,-0.84
2018-03-17T16:26:19.723Z,-0.96
2018-03-17T16:29:28.442Z,-1.01
2018-03-17T16:32:32.601Z,-1.13
2018-03-17T16:35:40.452Z,-1.23
2018-03-17T16:42:01.169Z,-1.20
2018-03-17T16:45:10.300Z,-1.22
2018-03-17T16:48:22.150Z,-1.19
2018-03-17T16:51:41.224Z,-1.39
2018-03-17T16:54:50.314Z,-1.43
2018-03-17T17:04:51.669Z,-1.36
2018-03-17T17:08:00.470Z,-1.31
2018-03-17T17:11:11.112Z,-1.29
2018-03-17T17:14:20.552Z,-1.26
2018-03-17T17:17:27.236Z,-1.29
2018-03-17T17:23:58.636Z,-1.32
2018-03-17T17:27:08.629Z,-1.31
2018-03-17T17:30:14.724Z,-1.36
2018-03-17T17:33:25.148Z,-1.34
2018-03-17T17:36:29.978Z,-1.30
2018-03-17T17:42:54.544Z,-1.29
2018-03-17T17:46:02.314Z,-1.34
2018-03-17T17:49:11.223Z,-1.33
2018-03-17T17:55:31.722Z,-1.45
2018-03-17T17:58:38.246Z,-1.42
2018-03-17T18:01:50.994Z,-1.41
2018-03-17T18:04:55.154Z,-1.41
2018-03-17T18:11:38.979Z,-1.40
2018-03-17T18:26:02.925Z,-1.39
2018-03-17T18:29:06.234Z,-1.46
2018-03-17T18:32:09.659Z,-1.49
2018-03-17T18:35:13.006Z,-1.53
2018-03-17T18:38:16.334Z,-1.53
2018-03-17T18:41:19.776Z,-1.49
2018-03-17T18:44:23.908Z,-1.50
2018-03-17T18:47:27.988Z,-1.48
2018-03-17T18:50:31.306Z,-1.53
2018-03-17T18:53:35.376Z,-1.54
2018-03-17T18:56:38.747Z,-1.56
2018-03-17T18:59:42.778Z,-1.50
2018-03-17T19:06:14.481Z,-1.43
2018-03-17T19:09:20.180Z,-1.46
2018-03-17T19:12:32.491Z,-1.42
2018-03-17T19:15:35.990Z,-1.41
2018-03-17T19:18:44.470Z,-1.44
2018-03-17T19:21:48.667Z,-1.53
2018-03-17T19:24:55.821Z,-1.60
2018-03-17T19:27:59.162Z,-1.67
2018-03-17T19:31:02.508Z,-1.70
2018-03-17T19:34:05.836Z,-1.61
2018-03-17T19:40:19.557Z,-1.52
2018-03-17T19:43:23.965Z,-1.45
2018-03-17T19:46:30.222Z,-1.42
2018-03-17T19:49:37.568Z,-1.41
2018-03-17T19:52:48.677Z,-1.44
2018-03-17T19:55:55.998Z,-1.42
2018-03-17T19:59:04.805Z,-1.39
2018-03-17T20:02:12.191Z,-1.43
2018-03-17T20:05:18.301Z,-1.45
2018-03-17T20:08:25.702Z,-1.47
2018-03-17T20:11:32.779Z,-1.39
2018-03-17T20:14:39.868Z,-1.37
2018-03-17T20:17:45.002Z,-1.34
2018-03-17T20:21:05.535Z,-1.39
2018-03-17T20:24:10.745Z,-1.39
2018-03-17T20:27:15.684Z,-1.40
2018-03-17T20:30:22.336Z,-1.37
2018-03-17T20:33:30.032Z,-1.42
2018-03-17T20:36:35.144Z,-1.45
2018-03-17T20:39:42.362Z,-1.52
2018-03-17T20:42:46.553Z,-1.51
2018-03-17T20:45:51.368Z,-1.41
2018-03-17T20:48:57.445Z,-1.45
2018-03-17T20:52:03.218Z,-1.45
2018-03-17T20:55:10.961Z,-1.41
2018-03-17T20:58:19.063Z,-1.41
2018-03-17T21:05:02.664Z,-1.38
2018-03-17T21:08:08.300Z,-1.36
2018-03-17T21:18:24.008Z,-1.33
2018-03-17T21:21:34.930Z,-1.31
2018-03-17T21:27:59.986Z,-1.30
2018-03-17T21:31:05.168Z,-1.34
2018-03-17T21:34:20.637Z,-1.35
2018-03-17T21:37:37.570Z,-1.34
2018-03-17T21:40:43.991Z,-1.35
2018-03-17T21:47:09.409Z,-1.37
2018-03-17T21:50:26.028Z,-1.32
2018-03-17T21:53:32.703Z,-1.31
2018-03-17T21:56:42.755Z,-1.27
2018-03-17T21:59:50.782Z,-1.29
2018-03-17T22:02:55.878Z,-1.28
2018-03-17T22:06:05.108Z,-1.21
2018-03-17T22:09:11.690Z,-1.25
2018-03-17T22:12:21.376Z,-1.28
2018-03-17T22:15:27.875Z,-1.27
2018-03-17T22:18:36.798Z,-1.31
2018-03-17T22:21:41.349Z,-1.32
2018-03-17T22:24:47.275Z,-1.32
2018-03-17T22:27:50.935Z,-1.34
2018-03-17T22:30:57.568Z,-1.36
2018-03-17T22:34:03.460Z,-1.35
2018-03-17T22:37:10.135Z,-1.37
2018-03-17T22:40:21.435Z,-1.34
2018-03-17T22:43:29.166Z,-1.31
2018-03-17T22:46:40.310Z,-1.34
2018-03-17T22:49:51.499Z,-1.31
2018-03-17T22:53:05.076Z,-1.33
2018-03-17T22:56:13.463Z,-1.30
2018-03-17T22:59:20.250Z,-1.26
2018-03-17T23:02:28.436Z,-1.31
2018-03-17T23:05:34.370Z,-1.36
2018-03-17T23:08:39.107Z,-1.39
2018-03-17T23:11:44.152Z,-1.35
2018-03-17T23:14:48.413Z,-1.29
2018-03-17T23:17:54.709Z,-1.27
2018-03-17T23:21:04.000Z,-1.33
2018-03-17T23:24:14.373Z,-1.38
2018-03-17T23:27:23.674Z,-1.35
2018-03-17T23:30:29.110Z,-1.35
2018-03-17T23:33:38.028Z,-1.39
2018-03-17T23:36:43.120Z,-1.42
2018-03-17T23:39:53.781Z,-1.39
2018-03-17T23:43:03.312Z,-1.31
2018-03-17T23:46:14.198Z,-1.29
2018-03-17T23:49:18.452Z,-1.27
2018-03-17T23:52:24.410Z,-1.29
2018-03-17T23:55:29.693Z,-1.30
2018-03-17T23:58:34.740Z,-1.28
